Accueil
METAR-TAF:

METAR-TAF

Aéroports :

Frontone, Italie

latitude: 43-31N, longitude: 012-44E, altitude: 570 m

Observation

Le bulletin a été fait il y a 1 heure et 9 minutes, à 02:55 UTC
Vent 2 kt de ouest/sud-ouest
Température 11°C
Humidité 82%
Pression 1025 hPa
Visibilité 10 km ou plus
Quelques nuages à une hauteur de 3200 ft

METAR: LIVF 240255Z 25002KT 9999 FEW032 11/08 Q1025 RMK BKN SCT200 MON S W CIME INC NC VAL NIL VIS MIN 9999

Heure: 06:04 (04:04 UTC)


TAF: absent

Observations et prévisions météorologiques de plus de 4000 aéroports (messages METAR et TAF).

Les stations disponibles sont représentées par des disques jaunes et rouges sur la carte.

Passer la souris dessus pour voir le nom de la station.

Cliquer dessus pour voir les observations et prévisions météorologiques.

Pour changer de carte: cliquez sur les boutons verts avec une croix noire pour zoomer, sur le bouton vert avec un tiret pour effectuer un zoom arrière, ou sur les flèches vertes pour les cartes adjacentes.


METAR-TAF: